createdAt,value
2023-02-11T00:02:12.105Z,27.70
2023-02-11T00:04:42.605Z,27.70
2023-02-11T00:07:13.568Z,27.80
2023-02-11T00:09:43.962Z,27.80
2023-02-11T00:12:14.537Z,27.80
2023-02-11T00:14:44.889Z,27.90
2023-02-11T00:17:15.232Z,27.90
2023-02-11T00:19:46.076Z,27.90
2023-02-11T00:22:16.325Z,27.90
2023-02-11T00:24:46.769Z,28.00
2023-02-11T00:27:17.284Z,28.00
2023-02-11T00:29:47.610Z,28.20
2023-02-11T00:32:17.945Z,28.30
2023-02-11T00:34:48.149Z,28.40
2023-02-11T00:37:20.169Z,28.50
2023-02-11T00:39:52.255Z,28.50
2023-02-11T00:42:24.918Z,28.60
2023-02-11T00:44:55.639Z,28.70
2023-02-11T00:47:35.440Z,28.80
2023-02-11T00:50:19.598Z,28.90
2023-02-11T00:52:51.476Z,29.00
2023-02-11T00:55:24.527Z,29.30
2023-02-11T00:57:55.207Z,29.50
2023-02-11T01:00:26.037Z,29.70
2023-02-11T01:02:56.857Z,29.80
2023-02-11T01:05:27.205Z,29.80
2023-02-11T01:07:57.704Z,29.80
2023-02-11T01:10:28.349Z,29.80
2023-02-11T01:12:58.632Z,29.80
2023-02-11T01:15:29.297Z,29.90
2023-02-11T01:18:00.221Z,30.10
2023-02-11T01:20:31.429Z,30.30
2023-02-11T01:23:02.212Z,30.40
2023-02-11T01:25:33.002Z,30.40
2023-02-11T01:28:03.360Z,30.40
2023-02-11T01:30:34.117Z,30.30
2023-02-11T01:33:04.787Z,30.30
2023-02-11T01:35:35.575Z,30.40
2023-02-11T01:38:08.170Z,30.60
2023-02-11T01:40:38.513Z,30.70
2023-02-11T01:43:09.351Z,30.80
2023-02-11T01:45:52.366Z,30.80
2023-02-11T01:48:35.040Z,30.90
2023-02-11T01:51:18.675Z,30.90
2023-02-11T01:54:09.024Z,31.00
2023-02-11T01:57:03.088Z,31.10
2023-02-11T02:00:30.655Z,31.20
2023-02-11T02:03:22.250Z,31.30
2023-02-11T02:06:03.296Z,31.30
2023-02-11T02:08:59.918Z,31.20
2023-02-11T02:11:32.625Z,31.20
2023-02-11T02:14:03.357Z,31.20
2023-02-11T02:16:38.517Z,31.30
2023-02-11T02:19:26.898Z,31.30
2023-02-11T02:22:20.705Z,31.10
2023-02-11T02:25:12.669Z,31.10
2023-02-11T02:28:02.140Z,31.10
2023-02-11T02:30:32.848Z,31.30
2023-02-11T02:33:25.958Z,31.40
2023-02-11T02:36:14.390Z,31.50
2023-02-11T02:39:11.632Z,31.60
2023-02-11T02:41:43.843Z,31.60
2023-02-11T02:44:15.082Z,31.70
2023-02-11T02:46:45.876Z,31.80
2023-02-11T02:49:19.358Z,31.80
2023-02-11T02:52:12.952Z,31.80
2023-02-11T02:54:49.445Z,31.90
2023-02-11T02:57:54.059Z,32.00
2023-02-11T03:00:47.547Z,32.20
2023-02-11T03:03:31.983Z,32.30
2023-02-11T03:06:13.286Z,32.30
2023-02-11T03:08:53.740Z,32.20
2023-02-11T03:11:26.047Z,32.20
2023-02-11T03:13:59.684Z,32.20
2023-02-11T03:16:32.226Z,32.10
2023-02-11T03:19:12.149Z,32.10
2023-02-11T03:21:45.698Z,32.10
2023-02-11T03:24:48.894Z,32.00
2023-02-11T03:27:24.445Z,32.00
2023-02-11T03:30:20.894Z,32.10
2023-02-11T03:33:35.673Z,32.00
2023-02-11T03:36:11.721Z,32.00
2023-02-11T03:38:45.066Z,32.10
2023-02-11T03:41:18.242Z,32.20
2023-02-11T03:43:54.908Z,32.20
2023-02-11T03:46:34.354Z,32.30
2023-02-11T03:49:09.793Z,32.30
2023-02-11T03:51:41.426Z,32.40
2023-02-11T03:54:19.222Z,32.40
2023-02-11T03:56:57.250Z,32.50
2023-02-11T03:59:28.077Z,32.50
2023-02-11T04:01:59.490Z,32.60
2023-02-11T04:04:29.788Z,32.50
2023-02-11T04:07:00.811Z,32.50
2023-02-11T04:09:31.037Z,32.50
2023-02-11T04:12:03.705Z,32.50
2023-02-11T04:14:39.137Z,32.50
2023-02-11T04:17:09.954Z,32.30
2023-02-11T04:19:40.840Z,32.30
2023-02-11T04:22:11.135Z,32.50
2023-02-11T04:24:41.471Z,32.60
2023-02-11T04:27:12.292Z,32.60
2023-02-11T04:29:42.603Z,32.50
2023-02-11T04:32:14.304Z,32.50
2023-02-11T04:34:44.960Z,32.40
2023-02-11T04:37:15.598Z,32.10
2023-02-11T04:39:46.258Z,32.00
2023-02-11T04:42:17.277Z,31.90
2023-02-11T04:44:49.350Z,32.00
2023-02-11T04:47:20.061Z,31.90
2023-02-11T04:49:50.756Z,31.80
2023-02-11T04:52:21.580Z,31.90
2023-02-11T04:54:52.720Z,31.90
2023-02-11T04:57:30.658Z,32.00
2023-02-11T05:00:01.276Z,32.10
2023-02-11T05:02:31.981Z,32.10
2023-02-11T05:05:02.234Z,32.10
2023-02-11T05:07:32.633Z,32.10
2023-02-11T05:10:02.966Z,32.00
2023-02-11T05:12:33.338Z,31.90
2023-02-11T05:15:03.686Z,31.90
2023-02-11T05:17:34.168Z,31.80
2023-02-11T05:20:04.577Z,31.70
2023-02-11T05:22:35.223Z,31.70
2023-02-11T05:25:06.095Z,31.70
2023-02-11T05:27:36.896Z,31.60
2023-02-11T05:30:09.063Z,31.60
2023-02-11T05:32:40.951Z,31.60
2023-02-11T05:35:11.997Z,31.60
2023-02-11T05:37:42.554Z,31.60
2023-02-11T05:40:13.460Z,31.60
2023-02-11T05:42:44.440Z,31.60
2023-02-11T05:45:14.683Z,31.60
2023-02-11T05:47:44.965Z,31.50
2023-02-11T05:50:15.286Z,31.50
2023-02-11T05:52:45.544Z,31.40
2023-02-11T05:55:16.412Z,31.40
2023-02-11T05:57:46.700Z,31.40
2023-02-11T06:00:18.033Z,31.40
2023-02-11T06:02:48.740Z,31.30
2023-02-11T06:05:19.612Z,31.30
2023-02-11T06:07:51.086Z,31.30
2023-02-11T06:10:22.762Z,31.30
2023-02-11T06:12:54.251Z,31.30
2023-02-11T06:15:25.355Z,31.20
2023-02-11T06:17:57.363Z,31.20
2023-02-11T06:20:28.080Z,31.10
2023-02-11T06:22:58.851Z,31.10
2023-02-11T06:25:31.588Z,31.10
2023-02-11T06:28:03.322Z,31.00
2023-02-11T06:30:35.507Z,30.90
2023-02-11T06:33:06.777Z,30.90
2023-02-11T06:35:37.486Z,30.90
2023-02-11T06:38:12.586Z,30.80
2023-02-11T06:40:43.960Z,30.70
2023-02-11T06:43:15.522Z,30.70
2023-02-11T06:45:46.262Z,30.60
2023-02-11T06:48:17.709Z,30.60
2023-02-11T06:50:48.405Z,30.60
2023-02-11T06:53:20.049Z,30.50
2023-02-11T06:55:50.861Z,30.40
2023-02-11T06:58:21.828Z,30.40
2023-02-11T07:00:53.537Z,30.40
2023-02-11T07:03:24.505Z,30.40
2023-02-11T07:05:55.526Z,30.30
2023-02-11T07:08:33.687Z,30.30
2023-02-11T07:11:04.976Z,30.30
2023-02-11T07:13:37.535Z,30.20
2023-02-11T07:16:11.482Z,30.20
2023-02-11T07:18:42.638Z,30.20
2023-02-11T07:21:15.766Z,30.20
2023-02-11T07:23:46.957Z,30.10
2023-02-11T07:26:21.813Z,30.10
2023-02-11T07:28:53.525Z,30.00
2023-02-11T07:31:31.566Z,30.00
2023-02-11T07:34:04.964Z,30.00
2023-02-11T07:36:36.583Z,29.90
2023-02-11T07:39:07.856Z,29.90
2023-02-11T07:41:40.555Z,29.90
2023-02-11T07:44:12.445Z,29.90
2023-02-11T07:46:49.035Z,29.80
2023-02-11T07:49:20.022Z,29.70
2023-02-11T07:51:51.520Z,29.70
2023-02-11T07:54:22.341Z,29.70
2023-02-11T07:56:54.260Z,29.60
2023-02-11T07:59:26.971Z,29.50
2023-02-11T08:01:58.715Z,29.50
2023-02-11T08:04:29.401Z,29.40
2023-02-11T08:07:01.865Z,29.30
2023-02-11T08:09:34.632Z,29.30
2023-02-11T08:12:07.722Z,29.20
2023-02-11T08:14:38.812Z,29.20
2023-02-11T08:17:10.820Z,29.10
2023-02-11T08:19:42.551Z,29.00
2023-02-11T08:22:13.674Z,28.90
2023-02-11T08:24:45.425Z,28.80
2023-02-11T08:27:19.239Z,28.70
2023-02-11T08:29:51.622Z,28.60
2023-02-11T08:32:23.229Z,28.50
2023-02-11T08:34:59.025Z,28.30
2023-02-11T08:37:32.057Z,28.20
2023-02-11T08:40:03.480Z,28.10
2023-02-11T08:42:35.309Z,28.00
2023-02-11T08:45:07.807Z,27.80
2023-02-11T08:47:40.059Z,27.70
2023-02-11T08:50:10.667Z,27.60
2023-02-11T08:52:41.806Z,27.50
2023-02-11T08:55:14.150Z,27.30
2023-02-11T08:57:46.034Z,27.30
2023-02-11T09:00:17.688Z,27.20
2023-02-11T09:02:49.096Z,27.10
2023-02-11T09:05:21.166Z,27.00
2023-02-11T09:07:53.963Z,26.90
2023-02-11T09:10:25.824Z,26.80
2023-02-11T09:12:56.704Z,26.80
2023-02-11T09:15:27.412Z,26.70
2023-02-11T09:17:59.927Z,26.60
2023-02-11T09:20:32.011Z,26.50
2023-02-11T09:23:04.662Z,26.50
2023-02-11T09:25:35.340Z,26.40
2023-02-11T09:28:06.050Z,26.30
2023-02-11T09:30:36.823Z,26.20
2023-02-11T09:33:09.106Z,26.10
2023-02-11T09:35:40.156Z,26.00
2023-02-11T09:38:11.436Z,26.00
2023-02-11T09:40:46.873Z,25.90
2023-02-11T09:43:24.361Z,25.80
2023-02-11T09:45:58.349Z,25.70
2023-02-11T09:48:28.965Z,25.60
2023-02-11T09:51:02.658Z,25.50
2023-02-11T09:53:39.704Z,25.40
2023-02-11T09:56:17.734Z,25.30
2023-02-11T09:58:48.949Z,25.10
2023-02-11T10:01:42.608Z,25.00
2023-02-11T10:04:43.498Z,24.80
2023-02-11T10:07:48.131Z,24.70
2023-02-11T10:10:47.982Z,24.60
2023-02-11T10:13:27.447Z,24.40
2023-02-11T10:16:19.383Z,24.30
2023-02-11T10:18:58.378Z,24.20
2023-02-11T10:21:57.646Z,24.10
2023-02-11T10:24:30.767Z,24.10
2023-02-11T10:27:01.353Z,23.90
2023-02-11T10:29:45.417Z,23.90
2023-02-11T10:32:37.547Z,23.80
2023-02-11T10:35:23.776Z,23.80
2023-02-11T10:37:54.732Z,23.80
2023-02-11T10:40:29.060Z,23.70
2023-02-11T10:43:04.216Z,23.70
2023-02-11T10:46:01.972Z,23.70
2023-02-11T10:48:56.360Z,23.70
2023-02-11T10:51:30.723Z,23.60
2023-02-11T10:54:07.876Z,23.60
2023-02-11T10:56:42.731Z,23.60
2023-02-11T10:59:21.585Z,23.50
2023-02-11T11:02:00.221Z,23.40
2023-02-11T11:04:35.804Z,23.40
2023-02-11T11:07:27.053Z,23.40
2023-02-11T11:10:01.302Z,23.20
2023-02-11T11:12:32.347Z,23.10
2023-02-11T11:15:14.931Z,23.00
2023-02-11T11:17:46.093Z,22.90
2023-02-11T11:20:48.256Z,22.80
2023-02-11T11:23:26.714Z,22.70
2023-02-11T11:26:18.549Z,22.60
2023-02-11T11:29:00.804Z,22.50
2023-02-11T11:31:55.469Z,22.40
2023-02-11T11:34:30.370Z,22.30
2023-02-11T11:37:02.892Z,22.30
2023-02-11T11:39:36.853Z,22.20
2023-02-11T11:42:26.746Z,22.10
2023-02-11T11:45:25.351Z,22.10
2023-02-11T11:48:25.384Z,22.00
2023-02-11T11:51:00.157Z,21.90
2023-02-11T11:53:44.322Z,21.80
2023-02-11T11:56:25.166Z,21.80
2023-02-11T11:58:56.558Z,21.80
2023-02-11T12:01:47.167Z,21.70
2023-02-11T12:04:50.795Z,21.60
2023-02-11T12:07:54.463Z,21.50
2023-02-11T12:10:51.679Z,21.50
2023-02-11T12:13:34.721Z,21.40
2023-02-11T12:16:29.376Z,21.30
2023-02-11T12:19:18.277Z,21.20
2023-02-11T12:21:49.090Z,21.10
2023-02-11T12:24:50.524Z,21.10
2023-02-11T12:27:24.837Z,21.00
2023-02-11T12:30:08.644Z,20.90
2023-02-11T12:32:57.414Z,20.80
2023-02-11T12:35:31.811Z,20.80
2023-02-11T12:38:29.249Z,20.80
2023-02-11T12:41:45.118Z,20.70
2023-02-11T12:44:32.202Z,20.70
2023-02-11T12:47:15.381Z,20.70
2023-02-11T12:50:15.274Z,20.60
2023-02-11T12:53:06.048Z,20.60
2023-02-11T12:55:46.817Z,20.60
2023-02-11T12:58:35.584Z,20.60
2023-02-11T13:01:29.935Z,20.60
2023-02-11T13:04:14.643Z,20.60
2023-02-11T13:06:54.811Z,20.50
2023-02-11T13:09:34.482Z,20.50
2023-02-11T13:12:26.254Z,20.50
2023-02-11T13:15:01.487Z,20.50
2023-02-11T13:17:51.141Z,20.40
2023-02-11T13:20:52.315Z,20.40
2023-02-11T13:23:42.037Z,20.50
2023-02-11T13:26:35.802Z,20.60
2023-02-11T13:29:21.727Z,20.70
2023-02-11T13:32:16.993Z,20.70
2023-02-11T13:34:48.591Z,20.80
2023-02-11T13:37:29.029Z,20.80
2023-02-11T13:40:10.662Z,20.80
2023-02-11T13:42:57.771Z,20.80
2023-02-11T13:45:43.156Z,20.80
2023-02-11T13:48:35.356Z,20.80
2023-02-11T13:51:13.617Z,20.80
2023-02-11T13:53:50.737Z,20.80
2023-02-11T13:56:37.883Z,20.90
2023-02-11T13:59:27.125Z,20.90
2023-02-11T14:02:25.463Z,20.90
2023-02-11T14:05:24.759Z,20.90
2023-02-11T14:08:42.909Z,20.80
2023-02-11T14:11:29.612Z,20.70
2023-02-11T14:14:26.597Z,20.60
2023-02-11T14:17:03.554Z,20.60
2023-02-11T14:19:48.638Z,20.50
2023-02-11T14:22:26.910Z,20.40
2023-02-11T14:25:06.422Z,20.30
2023-02-11T14:28:00.340Z,20.30
2023-02-11T14:30:41.285Z,20.20
2023-02-11T14:33:37.034Z,20.20
2023-02-11T14:36:38.953Z,20.20
2023-02-11T14:39:24.171Z,20.20
2023-02-11T14:41:56.557Z,20.10
2023-02-11T14:44:34.102Z,20.00
2023-02-11T14:47:05.897Z,20.00
2023-02-11T14:49:42.671Z,19.90
2023-02-11T14:52:29.604Z,19.90
2023-02-11T14:55:24.912Z,19.80
2023-02-11T14:58:10.140Z,19.80
2023-02-11T15:00:50.623Z,19.80
2023-02-11T15:03:32.918Z,19.70
2023-02-11T15:06:06.167Z,19.80
2023-02-11T15:08:40.612Z,19.80
2023-02-11T15:11:18.544Z,19.70
2023-02-11T15:13:50.358Z,19.60
2023-02-11T15:16:26.023Z,19.60
2023-02-11T15:19:05.342Z,19.50
2023-02-11T15:21:39.022Z,19.40
2023-02-11T15:24:26.572Z,19.30
2023-02-11T15:27:03.594Z,19.20
2023-02-11T15:29:51.823Z,19.20
2023-02-11T15:32:24.624Z,19.20
2023-02-11T15:34:58.816Z,19.20
2023-02-11T15:37:34.160Z,19.20
2023-02-11T15:40:14.973Z,19.10
2023-02-11T15:43:07.998Z,19.20
2023-02-11T15:45:59.677Z,19.20
2023-02-11T15:48:51.634Z,19.10
2023-02-11T15:51:35.396Z,19.10
2023-02-11T15:54:10.400Z,19.00
2023-02-11T15:56:48.160Z,18.90
2023-02-11T15:59:40.356Z,18.90
2023-02-11T16:02:12.710Z,18.80
2023-02-11T16:04:51.007Z,18.70
2023-02-11T16:07:43.717Z,18.60
2023-02-11T16:10:37.133Z,18.50
2023-02-11T16:13:11.853Z,18.50
2023-02-11T16:16:04.875Z,18.40
2023-02-11T16:18:41.521Z,18.40
2023-02-11T16:21:24.429Z,18.30
2023-02-11T16:24:00.941Z,18.30
2023-02-11T16:26:45.419Z,18.30
2023-02-11T16:29:29.330Z,18.20
2023-02-11T16:32:16.763Z,18.30
2023-02-11T16:34:49.808Z,18.30
2023-02-11T16:37:21.037Z,18.30
2023-02-11T16:39:51.856Z,18.20
2023-02-11T16:42:24.672Z,18.20
2023-02-11T16:44:55.663Z,18.10
2023-02-11T16:47:36.909Z,18.10
2023-02-11T16:50:10.576Z,18.10
2023-02-11T16:52:41.518Z,18.10
2023-02-11T16:55:15.310Z,18.00
2023-02-11T16:57:46.037Z,18.00
2023-02-11T17:00:19.972Z,18.00
2023-02-11T17:02:50.809Z,18.00
2023-02-11T17:05:26.806Z,18.00
2023-02-11T17:07:57.081Z,18.10
2023-02-11T17:10:28.138Z,18.10
2023-02-11T17:12:58.479Z,18.10
2023-02-11T17:15:29.240Z,18.10
2023-02-11T17:17:59.559Z,18.10
2023-02-11T17:20:31.302Z,18.10
2023-02-11T17:23:01.628Z,18.00
2023-02-11T17:25:32.005Z,18.00
2023-02-11T17:28:02.391Z,18.00
2023-02-11T17:30:32.904Z,17.90
2023-02-11T17:33:04.062Z,17.90
2023-02-11T17:35:34.301Z,17.80
2023-02-11T17:38:05.143Z,17.70
2023-02-11T17:40:36.167Z,17.70
2023-02-11T17:43:08.561Z,17.60
2023-02-11T17:45:44.910Z,17.60
2023-02-11T17:48:16.407Z,17.60
2023-02-11T17:50:47.064Z,17.60
2023-02-11T17:53:17.914Z,17.50
2023-02-11T17:55:49.006Z,17.40
2023-02-11T17:58:19.910Z,17.40
2023-02-11T18:00:51.866Z,17.40
2023-02-11T18:03:22.617Z,17.30
2023-02-11T18:05:54.542Z,17.20
2023-02-11T18:08:36.148Z,17.20
2023-02-11T18:11:12.432Z,17.10
2023-02-11T18:13:45.464Z,17.00
2023-02-11T18:16:19.344Z,16.90
2023-02-11T18:18:51.811Z,16.90
2023-02-11T18:21:25.651Z,16.90
2023-02-11T18:23:56.544Z,16.90
2023-02-11T18:26:32.010Z,16.80
2023-02-11T18:29:02.806Z,16.70
2023-02-11T18:31:34.932Z,16.70
2023-02-11T18:34:09.411Z,16.60
2023-02-11T18:36:40.573Z,16.60
2023-02-11T18:39:11.541Z,16.50
2023-02-11T18:41:46.565Z,16.50
2023-02-11T18:44:22.683Z,16.50
2023-02-11T18:46:53.691Z,16.40
2023-02-11T18:49:24.736Z,16.40
2023-02-11T18:51:57.550Z,16.40
2023-02-11T18:54:29.554Z,16.40
2023-02-11T18:57:00.293Z,16.30
2023-02-11T18:59:31.147Z,16.30
2023-02-11T19:02:01.858Z,16.30
2023-02-11T19:04:32.669Z,16.20
2023-02-11T19:07:05.780Z,16.10
2023-02-11T19:09:36.738Z,16.10
2023-02-11T19:12:09.198Z,16.10
2023-02-11T19:14:41.160Z,16.00
2023-02-11T19:17:14.485Z,16.00
2023-02-11T19:19:45.702Z,16.00
2023-02-11T19:22:17.559Z,15.90
2023-02-11T19:24:51.950Z,15.80
2023-02-11T19:27:22.965Z,15.80
2023-02-11T19:29:53.989Z,15.80
2023-02-11T19:32:25.732Z,15.70
2023-02-11T19:34:56.392Z,15.70
2023-02-11T19:37:28.219Z,15.60
2023-02-11T19:39:59.086Z,15.60
2023-02-11T19:42:31.238Z,15.60
2023-02-11T19:45:01.879Z,15.50
2023-02-11T19:47:34.298Z,15.50
2023-02-11T19:50:06.306Z,15.50
2023-02-11T19:52:37.002Z,15.40
2023-02-11T19:55:08.032Z,15.40
2023-02-11T19:57:41.239Z,15.50
2023-02-11T20:00:13.326Z,15.50
2023-02-11T20:02:44.346Z,15.50
2023-02-11T20:05:15.047Z,15.50
2023-02-11T20:07:45.785Z,15.50
2023-02-11T20:10:16.529Z,15.50
2023-02-11T20:12:47.254Z,15.50
2023-02-11T20:15:18.035Z,15.50
2023-02-11T20:17:50.320Z,15.60
2023-02-11T20:20:21.671Z,15.70
2023-02-11T20:22:53.801Z,15.70
2023-02-11T20:25:24.760Z,15.70
2023-02-11T20:27:55.667Z,15.70
2023-02-11T20:30:27.386Z,15.80
2023-02-11T20:32:59.232Z,15.80
2023-02-11T20:35:30.087Z,15.80
2023-02-11T20:38:02.568Z,15.90
2023-02-11T20:40:34.124Z,16.00
2023-02-11T20:43:04.770Z,16.00
2023-02-11T20:45:38.700Z,16.10
2023-02-11T20:48:09.501Z,16.20
2023-02-11T20:50:40.246Z,16.20
2023-02-11T20:53:12.350Z,16.30
2023-02-11T20:55:43.088Z,16.40
2023-02-11T20:58:13.901Z,16.40
2023-02-11T21:00:44.552Z,16.50
2023-02-11T21:03:15.293Z,16.60
2023-02-11T21:05:47.198Z,16.70
2023-02-11T21:11:01.276Z,17.00
2023-02-11T21:13:32.842Z,17.20
2023-02-11T21:16:04.483Z,17.30
2023-02-11T21:18:36.310Z,17.40
2023-02-11T21:21:07.798Z,17.50
2023-02-11T21:23:39.477Z,17.60
2023-02-11T21:26:11.062Z,17.70
2023-02-11T21:28:42.280Z,17.80
2023-02-11T21:31:20.285Z,17.90
2023-02-11T21:33:53.493Z,18.00
2023-02-11T21:36:26.908Z,18.10
2023-02-11T21:38:58.207Z,18.20
2023-02-11T21:41:29.471Z,18.30
2023-02-11T21:44:01.548Z,18.40
2023-02-11T21:46:33.913Z,18.60
2023-02-11T21:49:04.360Z,18.70
2023-02-11T21:51:34.709Z,18.90
2023-02-11T21:54:06.461Z,19.20
2023-02-11T21:56:37.605Z,19.50
2023-02-11T21:59:08.439Z,19.70
2023-02-11T22:01:39.148Z,20.00
2023-02-11T22:04:10.052Z,20.20
2023-02-11T22:06:42.482Z,20.50
2023-02-11T22:09:13.482Z,20.80
2023-02-11T22:11:44.245Z,21.00
2023-02-11T22:14:15.234Z,21.40
2023-02-11T22:16:49.143Z,21.50
2023-02-11T22:19:21.025Z,21.80
2023-02-11T22:21:53.180Z,22.10
2023-02-11T22:24:24.114Z,22.30
2023-02-11T22:26:55.124Z,22.50
2023-02-11T22:29:25.785Z,22.80
2023-02-11T22:31:57.419Z,23.10
2023-02-11T22:34:28.862Z,23.20
2023-02-11T22:37:00.414Z,23.40
2023-02-11T22:39:31.728Z,23.60
2023-02-11T22:42:02.683Z,23.90
2023-02-11T22:44:33.409Z,24.10
2023-02-11T22:47:04.150Z,24.40
2023-02-11T22:49:37.376Z,24.60
2023-02-11T22:52:08.347Z,24.80
2023-02-11T22:54:41.330Z,24.90
2023-02-11T22:57:12.058Z,25.10
2023-02-11T22:59:42.729Z,25.30
2023-02-11T23:02:14.408Z,25.40
2023-02-11T23:04:45.249Z,25.50
2023-02-11T23:07:17.852Z,25.50
2023-02-11T23:09:49.801Z,25.50
2023-02-11T23:12:20.805Z,25.60
2023-02-11T23:14:53.162Z,25.80
2023-02-11T23:17:26.583Z,25.90
2023-02-11T23:19:58.230Z,25.80
2023-02-11T23:22:30.203Z,25.80
2023-02-11T23:25:01.148Z,25.80
2023-02-11T23:27:32.163Z,25.80
2023-02-11T23:30:04.405Z,25.90
2023-02-11T23:32:35.563Z,25.80
2023-02-11T23:35:05.917Z,25.70
2023-02-11T23:37:36.666Z,25.60
2023-02-11T23:40:07.564Z,25.60
2023-02-11T23:42:38.466Z,25.50
2023-02-11T23:45:10.332Z,25.40
2023-02-11T23:47:43.827Z,25.40
2023-02-11T23:50:15.168Z,25.50
2023-02-11T23:52:46.311Z,25.60
2023-02-11T23:55:17.052Z,25.70
2023-02-11T23:57:48.043Z,25.80
